sensor_id;sensor_type;location;lat;lon;timestamp;P1;durP1;ratioP1;P2;durP2;ratioP2
6117;SDS011;3089;48.202;11.510;2023-09-12T00:00:49;12.37;;;7.50;;
6117;SDS011;3089;48.202;11.510;2023-09-12T00:03:18;13.00;;;7.90;;
6117;SDS011;3089;48.202;11.510;2023-09-12T00:05:50;13.33;;;7.90;;
6117;SDS011;3089;48.202;11.510;2023-09-12T00:08:18;11.43;;;7.97;;
6117;SDS011;3089;48.202;11.510;2023-09-12T00:10:46;11.90;;;8.30;;
6117;SDS011;3089;48.202;11.510;2023-09-12T00:13:16;11.30;;;7.80;;
6117;SDS011;3089;48.202;11.510;2023-09-12T00:15:43;9.87;;;7.03;;
6117;SDS011;3089;48.202;11.510;2023-09-12T00:18:11;10.53;;;7.20;;
6117;SDS011;3089;48.202;11.510;2023-09-12T00:20:39;12.10;;;7.23;;
6117;SDS011;3089;48.202;11.510;2023-09-12T00:23:07;12.70;;;7.87;;
6117;SDS011;3089;48.202;11.510;2023-09-12T00:25:35;11.00;;;7.13;;
6117;SDS011;3089;48.202;11.510;2023-09-12T00:28:03;11.60;;;7.17;;
6117;SDS011;3089;48.202;11.510;2023-09-12T00:30:33;11.53;;;7.70;;
6117;SDS011;3089;48.202;11.510;2023-09-12T00:33:01;12.57;;;8.43;;
6117;SDS011;3089;48.202;11.510;2023-09-12T00:35:29;10.73;;;7.20;;
6117;SDS011;3089;48.202;11.510;2023-09-12T00:37:57;10.03;;;6.87;;
6117;SDS011;3089;48.202;11.510;2023-09-12T00:40:24;14.50;;;7.67;;
6117;SDS011;3089;48.202;11.510;2023-09-12T00:42:53;10.43;;;7.03;;
6117;SDS011;3089;48.202;11.510;2023-09-12T00:45:20;21.00;;;8.70;;
6117;SDS011;3089;48.202;11.510;2023-09-12T00:47:50;10.33;;;7.10;;
6117;SDS011;3089;48.202;11.510;2023-09-12T00:50:20;11.67;;;7.73;;
6117;SDS011;3089;48.202;11.510;2023-09-12T00:52:49;11.83;;;7.10;;
6117;SDS011;3089;48.202;11.510;2023-09-12T00:55:17;10.90;;;7.23;;
6117;SDS011;3089;48.202;11.510;2023-09-12T00:57:45;10.30;;;6.43;;
6117;SDS011;3089;48.202;11.510;2023-09-12T01:00:14;11.50;;;7.17;;
6117;SDS011;3089;48.202;11.510;2023-09-12T01:02:44;9.67;;;6.70;;
6117;SDS011;3089;48.202;11.510;2023-09-12T01:05:17;16.30;;;6.90;;
6117;SDS011;3089;48.202;11.510;2023-09-12T01:07:46;11.27;;;7.20;;
6117;SDS011;3089;48.202;11.510;2023-09-12T01:10:14;11.57;;;7.23;;
6117;SDS011;3089;48.202;11.510;2023-09-12T01:12:42;11.40;;;7.20;;
6117;SDS011;3089;48.202;11.510;2023-09-12T01:15:10;9.47;;;6.37;;
6117;SDS011;3089;48.202;11.510;2023-09-12T01:17:41;10.90;;;6.33;;
6117;SDS011;3089;48.202;11.510;2023-09-12T01:20:11;9.87;;;6.50;;
6117;SDS011;3089;48.202;11.510;2023-09-12T01:25:45;12.43;;;7.67;;
6117;SDS011;3089;48.202;11.510;2023-09-12T01:28:30;10.80;;;6.50;;
6117;SDS011;3089;48.202;11.510;2023-09-12T01:31:01;10.33;;;6.57;;
6117;SDS011;3089;48.202;11.510;2023-09-12T01:33:30;11.30;;;7.70;;
6117;SDS011;3089;48.202;11.510;2023-09-12T01:35:58;12.20;;;6.63;;
6117;SDS011;3089;48.202;11.510;2023-09-12T01:38:26;13.70;;;7.30;;
6117;SDS011;3089;48.202;11.510;2023-09-12T01:40:56;10.50;;;6.70;;
6117;SDS011;3089;48.202;11.510;2023-09-12T01:43:24;9.27;;;6.30;;
6117;SDS011;3089;48.202;11.510;2023-09-12T01:45:55;13.43;;;8.03;;
6117;SDS011;3089;48.202;11.510;2023-09-12T01:48:26;9.60;;;6.90;;
6117;SDS011;3089;48.202;11.510;2023-09-12T01:51:00;10.53;;;7.23;;
6117;SDS011;3089;48.202;11.510;2023-09-12T01:53:28;10.50;;;7.20;;
6117;SDS011;3089;48.202;11.510;2023-09-12T01:55:58;8.83;;;6.90;;
6117;SDS011;3089;48.202;11.510;2023-09-12T01:58:27;9.50;;;5.70;;
6117;SDS011;3089;48.202;11.510;2023-09-12T02:00:57;11.97;;;7.80;;
6117;SDS011;3089;48.202;11.510;2023-09-12T02:03:25;11.03;;;6.93;;
6117;SDS011;3089;48.202;11.510;2023-09-12T02:05:53;9.37;;;6.90;;
6117;SDS011;3089;48.202;11.510;2023-09-12T02:08:22;9.57;;;6.43;;
6117;SDS011;3089;48.202;11.510;2023-09-12T02:10:49;9.40;;;6.63;;
6117;SDS011;3089;48.202;11.510;2023-09-12T02:13:17;11.97;;;6.97;;
6117;SDS011;3089;48.202;11.510;2023-09-12T02:15:45;10.40;;;6.73;;
6117;SDS011;3089;48.202;11.510;2023-09-12T02:18:15;10.23;;;7.00;;
6117;SDS011;3089;48.202;11.510;2023-09-12T02:20:43;13.03;;;6.87;;
6117;SDS011;3089;48.202;11.510;2023-09-12T02:23:12;10.10;;;6.20;;
6117;SDS011;3089;48.202;11.510;2023-09-12T02:25:40;10.03;;;7.00;;
6117;SDS011;3089;48.202;11.510;2023-09-12T02:28:08;9.60;;;6.17;;
6117;SDS011;3089;48.202;11.510;2023-09-12T02:30:37;12.30;;;6.27;;
6117;SDS011;3089;48.202;11.510;2023-09-12T02:33:06;13.80;;;6.07;;
6117;SDS011;3089;48.202;11.510;2023-09-12T02:35:35;14.00;;;7.30;;
6117;SDS011;3089;48.202;11.510;2023-09-12T02:38:03;12.77;;;6.70;;
6117;SDS011;3089;48.202;11.510;2023-09-12T02:40:31;10.50;;;6.90;;
6117;SDS011;3089;48.202;11.510;2023-09-12T02:42:59;11.27;;;7.50;;
6117;SDS011;3089;48.202;11.510;2023-09-12T02:45:27;12.07;;;8.27;;
6117;SDS011;3089;48.202;11.510;2023-09-12T02:47:55;12.97;;;7.80;;
6117;SDS011;3089;48.202;11.510;2023-09-12T02:50:23;10.80;;;6.37;;
6117;SDS011;3089;48.202;11.510;2023-09-12T02:52:52;12.10;;;7.07;;
6117;SDS011;3089;48.202;11.510;2023-09-12T02:55:20;10.87;;;6.47;;
6117;SDS011;3089;48.202;11.510;2023-09-12T02:57:48;10.60;;;7.07;;
6117;SDS011;3089;48.202;11.510;2023-09-12T03:00:16;9.67;;;6.40;;
6117;SDS011;3089;48.202;11.510;2023-09-12T03:02:46;10.00;;;6.20;;
6117;SDS011;3089;48.202;11.510;2023-09-12T03:05:14;12.07;;;6.70;;
6117;SDS011;3089;48.202;11.510;2023-09-12T03:07:42;11.27;;;7.83;;
6117;SDS011;3089;48.202;11.510;2023-09-12T03:10:11;12.13;;;5.77;;
6117;SDS011;3089;48.202;11.510;2023-09-12T03:12:39;9.50;;;6.57;;
6117;SDS011;3089;48.202;11.510;2023-09-12T03:15:07;9.63;;;6.50;;
6117;SDS011;3089;48.202;11.510;2023-09-12T03:17:36;10.83;;;6.97;;
6117;SDS011;3089;48.202;11.510;2023-09-12T03:20:05;10.57;;;6.67;;
6117;SDS011;3089;48.202;11.510;2023-09-12T03:22:34;9.87;;;5.70;;
6117;SDS011;3089;48.202;11.510;2023-09-12T03:25:04;8.27;;;5.57;;
6117;SDS011;3089;48.202;11.510;2023-09-12T03:27:34;9.13;;;6.30;;
6117;SDS011;3089;48.202;11.510;2023-09-12T03:30:02;13.37;;;6.53;;
6117;SDS011;3089;48.202;11.510;2023-09-12T03:32:30;10.03;;;7.00;;
6117;SDS011;3089;48.202;11.510;2023-09-12T03:34:58;10.33;;;7.30;;
6117;SDS011;3089;48.202;11.510;2023-09-12T03:37:26;10.93;;;6.40;;
6117;SDS011;3089;48.202;11.510;2023-09-12T03:39:54;11.43;;;6.90;;
6117;SDS011;3089;48.202;11.510;2023-09-12T03:42:22;9.40;;;6.70;;
6117;SDS011;3089;48.202;11.510;2023-09-12T03:45:04;15.90;;;5.83;;
6117;SDS011;3089;48.202;11.510;2023-09-12T03:47:33;8.30;;;5.83;;
6117;SDS011;3089;48.202;11.510;2023-09-12T03:50:01;8.73;;;5.53;;
6117;SDS011;3089;48.202;11.510;2023-09-12T03:52:29;13.03;;;6.27;;
6117;SDS011;3089;48.202;11.510;2023-09-12T03:54:57;12.77;;;6.50;;
6117;SDS011;3089;48.202;11.510;2023-09-12T03:57:27;10.17;;;6.00;;
6117;SDS011;3089;48.202;11.510;2023-09-12T03:59:55;9.63;;;5.60;;
6117;SDS011;3089;48.202;11.510;2023-09-12T04:02:24;8.50;;;6.00;;
6117;SDS011;3089;48.202;11.510;2023-09-12T04:04:52;7.97;;;5.37;;
6117;SDS011;3089;48.202;11.510;2023-09-12T04:07:20;10.83;;;6.00;;
6117;SDS011;3089;48.202;11.510;2023-09-12T04:09:47;9.03;;;6.43;;
6117;SDS011;3089;48.202;11.510;2023-09-12T04:12:15;9.10;;;6.30;;
6117;SDS011;3089;48.202;11.510;2023-09-12T04:14:43;10.77;;;6.30;;
6117;SDS011;3089;48.202;11.510;2023-09-12T04:17:11;11.30;;;6.50;;
6117;SDS011;3089;48.202;11.510;2023-09-12T04:19:40;11.17;;;6.10;;
6117;SDS011;3089;48.202;11.510;2023-09-12T04:22:08;11.97;;;7.13;;
6117;SDS011;3089;48.202;11.510;2023-09-12T04:24:36;10.80;;;6.37;;
6117;SDS011;3089;48.202;11.510;2023-09-12T04:27:04;10.10;;;7.30;;
6117;SDS011;3089;48.202;11.510;2023-09-12T04:29:32;10.93;;;7.50;;
6117;SDS011;3089;48.202;11.510;2023-09-12T04:32:01;11.07;;;6.97;;
6117;SDS011;3089;48.202;11.510;2023-09-12T04:34:29;9.50;;;5.90;;
6117;SDS011;3089;48.202;11.510;2023-09-12T04:36:59;12.00;;;5.83;;
6117;SDS011;3089;48.202;11.510;2023-09-12T04:39:30;12.23;;;7.17;;
6117;SDS011;3089;48.202;11.510;2023-09-12T04:41:58;8.70;;;6.60;;
6117;SDS011;3089;48.202;11.510;2023-09-12T04:44:26;10.80;;;6.27;;
6117;SDS011;3089;48.202;11.510;2023-09-12T04:46:53;11.50;;;7.70;;
6117;SDS011;3089;48.202;11.510;2023-09-12T04:49:21;11.17;;;6.67;;
6117;SDS011;3089;48.202;11.510;2023-09-12T04:51:49;10.30;;;6.43;;
6117;SDS011;3089;48.202;11.510;2023-09-12T04:54:18;9.07;;;6.20;;
6117;SDS011;3089;48.202;11.510;2023-09-12T04:56:46;7.83;;;5.93;;
6117;SDS011;3089;48.202;11.510;2023-09-12T04:59:14;11.80;;;6.17;;
6117;SDS011;3089;48.202;11.510;2023-09-12T05:01:42;9.50;;;6.30;;
6117;SDS011;3089;48.202;11.510;2023-09-12T05:04:10;10.70;;;5.47;;
6117;SDS011;3089;48.202;11.510;2023-09-12T05:06:38;12.50;;;6.00;;
6117;SDS011;3089;48.202;11.510;2023-09-12T05:09:06;10.70;;;5.90;;
6117;SDS011;3089;48.202;11.510;2023-09-12T05:11:36;9.37;;;5.83;;
6117;SDS011;3089;48.202;11.510;2023-09-12T05:14:04;8.87;;;5.77;;
6117;SDS011;3089;48.202;11.510;2023-09-12T05:16:32;16.20;;;6.37;;
6117;SDS011;3089;48.202;11.510;2023-09-12T05:19:00;12.80;;;6.73;;
6117;SDS011;3089;48.202;11.510;2023-09-12T05:21:28;12.90;;;5.60;;
6117;SDS011;3089;48.202;11.510;2023-09-12T05:23:56;9.90;;;6.20;;
6117;SDS011;3089;48.202;11.510;2023-09-12T05:26:24;11.33;;;5.53;;
6117;SDS011;3089;48.202;11.510;2023-09-12T05:28:53;28.17;;;7.03;;
6117;SDS011;3089;48.202;11.510;2023-09-12T05:31:21;8.90;;;5.80;;
6117;SDS011;3089;48.202;11.510;2023-09-12T05:33:49;9.53;;;6.00;;
6117;SDS011;3089;48.202;11.510;2023-09-12T05:36:17;8.03;;;5.80;;
6117;SDS011;3089;48.202;11.510;2023-09-12T05:38:45;8.73;;;5.83;;
6117;SDS011;3089;48.202;11.510;2023-09-12T05:41:13;17.27;;;6.30;;
6117;SDS011;3089;48.202;11.510;2023-09-12T05:43:41;7.80;;;5.30;;
6117;SDS011;3089;48.202;11.510;2023-09-12T05:46:10;15.93;;;6.17;;
6117;SDS011;3089;48.202;11.510;2023-09-12T05:48:38;12.33;;;6.37;;
6117;SDS011;3089;48.202;11.510;2023-09-12T05:51:06;22.20;;;7.63;;
6117;SDS011;3089;48.202;11.510;2023-09-12T05:53:34;9.93;;;6.30;;
6117;SDS011;3089;48.202;11.510;2023-09-12T05:56:02;13.00;;;6.60;;
6117;SDS011;3089;48.202;11.510;2023-09-12T05:58:30;12.10;;;7.23;;
6117;SDS011;3089;48.202;11.510;2023-09-12T06:00:58;9.83;;;6.30;;
6117;SDS011;3089;48.202;11.510;2023-09-12T06:03:27;11.73;;;7.30;;
6117;SDS011;3089;48.202;11.510;2023-09-12T06:05:55;10.00;;;6.60;;
6117;SDS011;3089;48.202;11.510;2023-09-12T06:08:23;14.03;;;6.77;;
6117;SDS011;3089;48.202;11.510;2023-09-12T06:10:51;11.00;;;6.60;;
6117;SDS011;3089;48.202;11.510;2023-09-12T06:13:19;11.10;;;7.00;;
6117;SDS011;3089;48.202;11.510;2023-09-12T06:15:48;13.00;;;8.00;;
6117;SDS011;3089;48.202;11.510;2023-09-12T06:18:15;19.33;;;8.20;;
6117;SDS011;3089;48.202;11.510;2023-09-12T06:20:45;27.93;;;8.93;;
6117;SDS011;3089;48.202;11.510;2023-09-12T06:23:13;18.70;;;9.57;;
6117;SDS011;3089;48.202;11.510;2023-09-12T06:25:41;27.10;;;9.50;;
6117;SDS011;3089;48.202;11.510;2023-09-12T06:28:10;14.33;;;8.53;;
6117;SDS011;3089;48.202;11.510;2023-09-12T06:30:38;14.10;;;7.50;;
6117;SDS011;3089;48.202;11.510;2023-09-12T06:33:06;12.63;;;7.40;;
6117;SDS011;3089;48.202;11.510;2023-09-12T06:35:33;12.17;;;7.37;;
6117;SDS011;3089;48.202;11.510;2023-09-12T06:38:05;11.87;;;7.47;;
6117;SDS011;3089;48.202;11.510;2023-09-12T06:40:33;16.90;;;8.07;;
6117;SDS011;3089;48.202;11.510;2023-09-12T06:43:01;13.63;;;7.67;;
6117;SDS011;3089;48.202;11.510;2023-09-12T06:45:29;16.13;;;7.40;;
6117;SDS011;3089;48.202;11.510;2023-09-12T06:47:59;10.57;;;6.47;;
6117;SDS011;3089;48.202;11.510;2023-09-12T06:50:27;12.47;;;7.17;;
6117;SDS011;3089;48.202;11.510;2023-09-12T06:53:00;15.97;;;6.30;;
6117;SDS011;3089;48.202;11.510;2023-09-12T06:55:29;10.00;;;6.80;;
6117;SDS011;3089;48.202;11.510;2023-09-12T06:57:57;12.60;;;7.80;;
6117;SDS011;3089;48.202;11.510;2023-09-12T07:00:25;17.07;;;6.83;;
6117;SDS011;3089;48.202;11.510;2023-09-12T07:02:53;13.53;;;6.70;;
6117;SDS011;3089;48.202;11.510;2023-09-12T07:05:21;15.83;;;7.07;;
6117;SDS011;3089;48.202;11.510;2023-09-12T07:07:49;15.87;;;7.13;;
6117;SDS011;3089;48.202;11.510;2023-09-12T07:10:17;12.40;;;6.87;;
6117;SDS011;3089;48.202;11.510;2023-09-12T07:12:52;12.53;;;6.97;;
6117;SDS011;3089;48.202;11.510;2023-09-12T07:15:20;14.33;;;6.67;;
6117;SDS011;3089;48.202;11.510;2023-09-12T07:17:48;10.10;;;6.30;;
6117;SDS011;3089;48.202;11.510;2023-09-12T07:20:17;10.67;;;6.20;;
6117;SDS011;3089;48.202;11.510;2023-09-12T07:22:46;15.10;;;7.63;;
6117;SDS011;3089;48.202;11.510;2023-09-12T07:25:14;10.67;;;7.00;;
6117;SDS011;3089;48.202;11.510;2023-09-12T07:27:42;12.77;;;6.43;;
6117;SDS011;3089;48.202;11.510;2023-09-12T07:30:12;14.50;;;7.13;;
6117;SDS011;3089;48.202;11.510;2023-09-12T07:32:40;10.13;;;6.40;;
6117;SDS011;3089;48.202;11.510;2023-09-12T07:35:08;11.00;;;6.63;;
6117;SDS011;3089;48.202;11.510;2023-09-12T07:37:36;10.43;;;6.50;;
6117;SDS011;3089;48.202;11.510;2023-09-12T07:40:04;11.57;;;6.23;;
6117;SDS011;3089;48.202;11.510;2023-09-12T07:42:36;12.40;;;7.07;;
6117;SDS011;3089;48.202;11.510;2023-09-12T07:45:05;12.37;;;6.60;;
6117;SDS011;3089;48.202;11.510;2023-09-12T07:47:35;13.43;;;7.00;;
6117;SDS011;3089;48.202;11.510;2023-09-12T07:50:03;12.87;;;6.67;;
6117;SDS011;3089;48.202;11.510;2023-09-12T07:52:32;18.13;;;6.03;;
6117;SDS011;3089;48.202;11.510;2023-09-12T07:55:00;12.70;;;6.90;;
6117;SDS011;3089;48.202;11.510;2023-09-12T07:57:29;11.90;;;6.40;;
6117;SDS011;3089;48.202;11.510;2023-09-12T07:59:57;9.53;;;6.67;;
6117;SDS011;3089;48.202;11.510;2023-09-12T08:02:25;11.17;;;6.60;;
6117;SDS011;3089;48.202;11.510;2023-09-12T08:04:54;13.47;;;6.50;;
6117;SDS011;3089;48.202;11.510;2023-09-12T08:07:22;10.17;;;6.57;;
6117;SDS011;3089;48.202;11.510;2023-09-12T08:09:51;13.20;;;5.93;;
6117;SDS011;3089;48.202;11.510;2023-09-12T08:12:20;15.87;;;6.57;;
6117;SDS011;3089;48.202;11.510;2023-09-12T08:14:49;10.17;;;6.10;;
6117;SDS011;3089;48.202;11.510;2023-09-12T08:17:17;9.63;;;6.37;;
6117;SDS011;3089;48.202;11.510;2023-09-12T08:19:45;10.83;;;6.80;;
6117;SDS011;3089;48.202;11.510;2023-09-12T08:22:15;9.03;;;5.70;;
6117;SDS011;3089;48.202;11.510;2023-09-12T08:24:43;20.73;;;6.07;;
6117;SDS011;3089;48.202;11.510;2023-09-12T08:27:11;9.37;;;5.87;;
6117;SDS011;3089;48.202;11.510;2023-09-12T08:29:39;14.77;;;6.40;;
6117;SDS011;3089;48.202;11.510;2023-09-12T08:32:10;9.80;;;6.17;;
6117;SDS011;3089;48.202;11.510;2023-09-12T08:34:38;9.50;;;6.50;;
6117;SDS011;3089;48.202;11.510;2023-09-12T08:37:06;11.00;;;5.90;;
6117;SDS011;3089;48.202;11.510;2023-09-12T08:39:41;14.30;;;7.00;;
6117;SDS011;3089;48.202;11.510;2023-09-12T08:42:11;9.70;;;7.07;;
6117;SDS011;3089;48.202;11.510;2023-09-12T08:44:40;10.10;;;6.03;;
6117;SDS011;3089;48.202;11.510;2023-09-12T08:47:09;9.67;;;6.70;;
6117;SDS011;3089;48.202;11.510;2023-09-12T08:49:39;10.33;;;6.77;;
6117;SDS011;3089;48.202;11.510;2023-09-12T08:52:08;11.60;;;6.70;;
6117;SDS011;3089;48.202;11.510;2023-09-12T08:54:37;12.27;;;6.73;;
6117;SDS011;3089;48.202;11.510;2023-09-12T08:57:06;11.10;;;6.10;;
6117;SDS011;3089;48.202;11.510;2023-09-12T08:59:34;10.80;;;6.00;;
6117;SDS011;3089;48.202;11.510;2023-09-12T09:02:03;9.63;;;6.67;;
6117;SDS011;3089;48.202;11.510;2023-09-12T09:04:34;11.63;;;7.40;;
6117;SDS011;3089;48.202;11.510;2023-09-12T09:07:03;11.07;;;6.73;;
6117;SDS011;3089;48.202;11.510;2023-09-12T09:09:32;8.53;;;6.10;;
6117;SDS011;3089;48.202;11.510;2023-09-12T09:12:00;11.00;;;6.67;;
6117;SDS011;3089;48.202;11.510;2023-09-12T09:14:30;9.17;;;6.20;;
6117;SDS011;3089;48.202;11.510;2023-09-12T09:16:58;13.23;;;6.50;;
6117;SDS011;3089;48.202;11.510;2023-09-12T09:19:39;13.00;;;6.77;;
6117;SDS011;3089;48.202;11.510;2023-09-12T09:22:08;11.93;;;6.03;;
6117;SDS011;3089;48.202;11.510;2023-09-12T09:24:36;12.53;;;7.00;;
6117;SDS011;3089;48.202;11.510;2023-09-12T09:27:04;12.83;;;6.67;;
6117;SDS011;3089;48.202;11.510;2023-09-12T09:29:43;10.03;;;6.80;;
6117;SDS011;3089;48.202;11.510;2023-09-12T09:32:16;9.73;;;6.40;;
6117;SDS011;3089;48.202;11.510;2023-09-12T09:34:45;11.13;;;6.30;;
6117;SDS011;3089;48.202;11.510;2023-09-12T09:37:13;12.63;;;6.70;;
6117;SDS011;3089;48.202;11.510;2023-09-12T09:39:41;12.90;;;6.50;;
6117;SDS011;3089;48.202;11.510;2023-09-12T09:42:10;11.70;;;6.77;;
6117;SDS011;3089;48.202;11.510;2023-09-12T09:44:40;8.97;;;5.83;;
6117;SDS011;3089;48.202;11.510;2023-09-12T09:47:08;8.40;;;6.50;;
6117;SDS011;3089;48.202;11.510;2023-09-12T09:49:36;9.73;;;5.10;;
6117;SDS011;3089;48.202;11.510;2023-09-12T09:52:04;8.10;;;6.00;;
6117;SDS011;3089;48.202;11.510;2023-09-12T09:54:32;13.73;;;6.70;;
6117;SDS011;3089;48.202;11.510;2023-09-12T09:57:00;20.63;;;7.10;;
6117;SDS011;3089;48.202;11.510;2023-09-12T09:59:29;9.80;;;5.83;;
6117;SDS011;3089;48.202;11.510;2023-09-12T10:01:59;12.17;;;6.03;;
6117;SDS011;3089;48.202;11.510;2023-09-12T10:04:29;10.90;;;6.00;;
6117;SDS011;3089;48.202;11.510;2023-09-12T10:07:11;13.53;;;5.93;;
6117;SDS011;3089;48.202;11.510;2023-09-12T10:09:39;11.73;;;6.43;;
6117;SDS011;3089;48.202;11.510;2023-09-12T10:12:10;12.13;;;6.60;;
6117;SDS011;3089;48.202;11.510;2023-09-12T10:14:38;11.67;;;5.93;;
6117;SDS011;3089;48.202;11.510;2023-09-12T10:17:09;11.83;;;5.80;;
6117;SDS011;3089;48.202;11.510;2023-09-12T10:19:42;10.00;;;5.23;;
6117;SDS011;3089;48.202;11.510;2023-09-12T10:22:16;9.20;;;5.37;;
6117;SDS011;3089;48.202;11.510;2023-09-12T10:24:48;8.00;;;5.77;;
6117;SDS011;3089;48.202;11.510;2023-09-12T10:27:18;11.13;;;5.47;;
6117;SDS011;3089;48.202;11.510;2023-09-12T10:29:47;15.30;;;5.73;;
6117;SDS011;3089;48.202;11.510;2023-09-12T10:32:19;16.67;;;6.40;;
6117;SDS011;3089;48.202;11.510;2023-09-12T10:34:48;9.43;;;5.50;;
6117;SDS011;3089;48.202;11.510;2023-09-12T10:37:19;8.73;;;4.60;;
6117;SDS011;3089;48.202;11.510;2023-09-12T10:39:49;6.43;;;4.77;;
6117;SDS011;3089;48.202;11.510;2023-09-12T10:42:20;8.13;;;5.13;;
6117;SDS011;3089;48.202;11.510;2023-09-12T10:44:49;7.97;;;5.07;;
6117;SDS011;3089;48.202;11.510;2023-09-12T10:47:20;7.80;;;5.30;;
6117;SDS011;3089;48.202;11.510;2023-09-12T10:49:49;7.83;;;5.30;;
6117;SDS011;3089;48.202;11.510;2023-09-12T10:52:23;9.30;;;5.50;;
6117;SDS011;3089;48.202;11.510;2023-09-12T10:54:52;7.20;;;5.13;;
6117;SDS011;3089;48.202;11.510;2023-09-12T10:57:20;7.20;;;4.63;;
6117;SDS011;3089;48.202;11.510;2023-09-12T11:00:09;9.53;;;5.50;;
6117;SDS011;3089;48.202;11.510;2023-09-12T11:02:39;8.63;;;6.00;;
6117;SDS011;3089;48.202;11.510;2023-09-12T11:08:11;9.13;;;5.97;;
6117;SDS011;3089;48.202;11.510;2023-09-12T11:10:39;7.47;;;5.13;;
6117;SDS011;3089;48.202;11.510;2023-09-12T11:13:07;9.13;;;5.80;;
6117;SDS011;3089;48.202;11.510;2023-09-12T11:18:50;7.40;;;4.70;;
6117;SDS011;3089;48.202;11.510;2023-09-12T11:21:42;8.17;;;5.13;;
6117;SDS011;3089;48.202;11.510;2023-09-12T11:24:11;7.60;;;4.83;;
6117;SDS011;3089;48.202;11.510;2023-09-12T11:26:52;7.40;;;5.60;;
6117;SDS011;3089;48.202;11.510;2023-09-12T11:29:27;11.00;;;5.70;;
6117;SDS011;3089;48.202;11.510;2023-09-12T11:31:58;8.70;;;5.60;;
6117;SDS011;3089;48.202;11.510;2023-09-12T11:34:36;9.73;;;5.30;;
6117;SDS011;3089;48.202;11.510;2023-09-12T11:37:05;7.40;;;5.13;;
6117;SDS011;3089;48.202;11.510;2023-09-12T11:39:33;8.47;;;5.17;;
6117;SDS011;3089;48.202;11.510;2023-09-12T11:42:03;6.93;;;4.80;;
6117;SDS011;3089;48.202;11.510;2023-09-12T11:44:35;11.77;;;5.27;;
6117;SDS011;3089;48.202;11.510;2023-09-12T11:47:03;11.00;;;6.10;;
6117;SDS011;3089;48.202;11.510;2023-09-12T11:49:36;8.40;;;5.70;;
6117;SDS011;3089;48.202;11.510;2023-09-12T11:52:07;9.70;;;4.93;;
6117;SDS011;3089;48.202;11.510;2023-09-12T11:54:36;7.97;;;5.30;;
6117;SDS011;3089;48.202;11.510;2023-09-12T11:57:06;9.00;;;6.03;;
6117;SDS011;3089;48.202;11.510;2023-09-12T11:59:36;11.93;;;6.00;;
6117;SDS011;3089;48.202;11.510;2023-09-12T12:02:06;9.60;;;5.37;;
6117;SDS011;3089;48.202;11.510;2023-09-12T12:04:36;8.73;;;5.60;;
6117;SDS011;3089;48.202;11.510;2023-09-12T12:07:05;8.00;;;5.73;;
6117;SDS011;3089;48.202;11.510;2023-09-12T12:09:34;9.87;;;5.97;;
6117;SDS011;3089;48.202;11.510;2023-09-12T12:12:09;7.67;;;5.33;;
6117;SDS011;3089;48.202;11.510;2023-09-12T12:14:38;9.00;;;5.87;;
6117;SDS011;3089;48.202;11.510;2023-09-12T12:17:07;7.97;;;5.53;;
6117;SDS011;3089;48.202;11.510;2023-09-12T12:19:37;7.10;;;5.40;;
6117;SDS011;3089;48.202;11.510;2023-09-12T12:22:11;8.53;;;5.13;;
6117;SDS011;3089;48.202;11.510;2023-09-12T12:24:40;8.07;;;4.70;;
6117;SDS011;3089;48.202;11.510;2023-09-12T12:27:09;8.40;;;5.27;;
6117;SDS011;3089;48.202;11.510;2023-09-12T12:29:37;8.40;;;5.80;;
6117;SDS011;3089;48.202;11.510;2023-09-12T12:32:06;11.73;;;5.80;;
6117;SDS011;3089;48.202;11.510;2023-09-12T12:34:36;8.20;;;5.80;;
6117;SDS011;3089;48.202;11.510;2023-09-12T12:37:27;9.97;;;5.57;;
6117;SDS011;3089;48.202;11.510;2023-09-12T12:39:58;11.07;;;5.40;;
6117;SDS011;3089;48.202;11.510;2023-09-12T12:42:32;23.63;;;6.40;;
6117;SDS011;3089;48.202;11.510;2023-09-12T12:45:17;9.63;;;5.53;;
6117;SDS011;3089;48.202;11.510;2023-09-12T12:47:46;10.20;;;5.90;;
6117;SDS011;3089;48.202;11.510;2023-09-12T12:50:19;10.17;;;5.90;;
6117;SDS011;3089;48.202;11.510;2023-09-12T12:52:48;7.50;;;5.57;;
6117;SDS011;3089;48.202;11.510;2023-09-12T12:55:16;9.90;;;5.80;;
6117;SDS011;3089;48.202;11.510;2023-09-12T12:57:47;10.20;;;5.90;;
6117;SDS011;3089;48.202;11.510;2023-09-12T13:00:16;7.77;;;5.40;;
6117;SDS011;3089;48.202;11.510;2023-09-12T13:02:47;6.77;;;4.77;;
6117;SDS011;3089;48.202;11.510;2023-09-12T13:05:24;9.33;;;6.20;;
6117;SDS011;3089;48.202;11.510;2023-09-12T13:07:53;7.47;;;5.27;;
6117;SDS011;3089;48.202;11.510;2023-09-12T13:10:21;8.70;;;5.17;;
6117;SDS011;3089;48.202;11.510;2023-09-12T13:12:50;10.00;;;6.07;;
6117;SDS011;3089;48.202;11.510;2023-09-12T13:15:18;8.40;;;5.33;;
6117;SDS011;3089;48.202;11.510;2023-09-12T13:17:46;7.23;;;4.80;;
6117;SDS011;3089;48.202;11.510;2023-09-12T13:20:15;8.87;;;5.20;;
6117;SDS011;3089;48.202;11.510;2023-09-12T13:22:44;7.80;;;5.50;;
6117;SDS011;3089;48.202;11.510;2023-09-12T13:25:12;8.73;;;5.60;;
6117;SDS011;3089;48.202;11.510;2023-09-12T13:27:41;8.40;;;5.17;;
6117;SDS011;3089;48.202;11.510;2023-09-12T13:30:09;8.00;;;5.23;;
6117;SDS011;3089;48.202;11.510;2023-09-12T13:32:37;12.47;;;4.87;;
6117;SDS011;3089;48.202;11.510;2023-09-12T13:35:06;12.23;;;5.73;;
6117;SDS011;3089;48.202;11.510;2023-09-12T13:37:34;8.53;;;4.90;;
6117;SDS011;3089;48.202;11.510;2023-09-12T13:40:04;6.87;;;4.70;;
6117;SDS011;3089;48.202;11.510;2023-09-12T13:42:35;7.93;;;5.50;;
6117;SDS011;3089;48.202;11.510;2023-09-12T13:45:03;7.93;;;5.20;;
6117;SDS011;3089;48.202;11.510;2023-09-12T13:47:31;7.47;;;4.90;;
6117;SDS011;3089;48.202;11.510;2023-09-12T13:49:59;10.37;;;6.03;;
6117;SDS011;3089;48.202;11.510;2023-09-12T13:52:27;8.40;;;5.50;;
6117;SDS011;3089;48.202;11.510;2023-09-12T13:54:55;7.43;;;4.73;;
6117;SDS011;3089;48.202;11.510;2023-09-12T13:57:26;9.60;;;5.93;;
6117;SDS011;3089;48.202;11.510;2023-09-12T13:59:54;9.83;;;5.00;;
6117;SDS011;3089;48.202;11.510;2023-09-12T14:02:22;8.33;;;5.43;;
6117;SDS011;3089;48.202;11.510;2023-09-12T14:04:51;6.60;;;4.73;;
6117;SDS011;3089;48.202;11.510;2023-09-12T14:07:34;8.95;;;5.28;;
6117;SDS011;3089;48.202;11.510;2023-09-12T14:10:03;8.77;;;5.10;;
6117;SDS011;3089;48.202;11.510;2023-09-12T14:12:33;7.90;;;5.80;;
6117;SDS011;3089;48.202;11.510;2023-09-12T14:15:01;7.03;;;4.60;;
6117;SDS011;3089;48.202;11.510;2023-09-12T14:17:34;8.77;;;4.97;;
6117;SDS011;3089;48.202;11.510;2023-09-12T14:20:09;15.50;;;5.13;;
6117;SDS011;3089;48.202;11.510;2023-09-12T14:22:41;6.83;;;5.07;;
6117;SDS011;3089;48.202;11.510;2023-09-12T14:25:10;10.40;;;5.10;;
6117;SDS011;3089;48.202;11.510;2023-09-12T14:27:43;10.30;;;5.80;;
6117;SDS011;3089;48.202;11.510;2023-09-12T14:30:11;8.67;;;5.20;;
6117;SDS011;3089;48.202;11.510;2023-09-12T14:32:40;7.47;;;5.47;;
6117;SDS011;3089;48.202;11.510;2023-09-12T14:35:08;11.60;;;6.40;;
6117;SDS011;3089;48.202;11.510;2023-09-12T14:37:36;8.57;;;5.03;;
6117;SDS011;3089;48.202;11.510;2023-09-12T14:40:04;10.37;;;4.83;;
6117;SDS011;3089;48.202;11.510;2023-09-12T14:42:33;8.90;;;5.47;;
6117;SDS011;3089;48.202;11.510;2023-09-12T14:45:03;9.13;;;5.63;;
6117;SDS011;3089;48.202;11.510;2023-09-12T14:47:32;8.00;;;5.53;;
6117;SDS011;3089;48.202;11.510;2023-09-12T14:50:00;13.83;;;5.77;;
6117;SDS011;3089;48.202;11.510;2023-09-12T14:52:28;9.80;;;5.70;;
6117;SDS011;3089;48.202;11.510;2023-09-12T14:54:56;8.97;;;5.83;;
6117;SDS011;3089;48.202;11.510;2023-09-12T14:57:25;9.60;;;6.30;;
6117;SDS011;3089;48.202;11.510;2023-09-12T14:59:53;8.13;;;5.40;;
6117;SDS011;3089;48.202;11.510;2023-09-12T15:02:23;9.60;;;6.30;;
6117;SDS011;3089;48.202;11.510;2023-09-12T15:04:57;9.53;;;6.73;;
6117;SDS011;3089;48.202;11.510;2023-09-12T15:07:25;9.60;;;5.40;;
6117;SDS011;3089;48.202;11.510;2023-09-12T15:09:56;14.20;;;5.33;;
6117;SDS011;3089;48.202;11.510;2023-09-12T15:12:24;8.77;;;6.43;;
6117;SDS011;3089;48.202;11.510;2023-09-12T15:14:52;9.50;;;6.30;;